createdAt,value
2019-05-20T00:00:43.316Z,15.40
2019-05-20T00:03:10.948Z,13.20
2019-05-20T00:05:38.490Z,14.10
2019-05-20T00:08:05.997Z,14.53
2019-05-20T00:10:34.900Z,14.23
2019-05-20T00:13:04.376Z,13.10
2019-05-20T00:15:31.936Z,12.60
2019-05-20T00:18:01.142Z,14.03
2019-05-20T00:20:29.430Z,11.60
2019-05-20T00:22:56.923Z,10.67
2019-05-20T00:25:24.459Z,15.13
2019-05-20T00:27:53.870Z,14.57
2019-05-20T00:30:21.474Z,16.47
2019-05-20T00:32:48.988Z,14.77
2019-05-20T00:35:18.083Z,14.70
2019-05-20T00:37:45.652Z,12.33
2019-05-20T00:40:14.770Z,13.60
2019-05-20T00:42:43.395Z,13.40
2019-05-20T00:45:11.013Z,14.60
2019-05-20T00:47:39.271Z,13.20
2019-05-20T00:50:07.979Z,13.07
2019-05-20T00:52:36.630Z,13.10
2019-05-20T00:55:05.563Z,14.53
2019-05-20T00:57:33.044Z,13.87
2019-05-20T01:00:02.032Z,15.43
2019-05-20T01:02:29.385Z,16.93
2019-05-20T01:04:56.950Z,14.17
2019-05-20T01:07:24.560Z,12.03
2019-05-20T01:09:52.061Z,14.53
2019-05-20T01:12:19.576Z,11.60
2019-05-20T01:14:47.096Z,14.47
2019-05-20T01:17:16.215Z,12.93
2019-05-20T01:19:44.519Z,14.43
2019-05-20T01:22:12.052Z,17.57
2019-05-20T01:24:39.731Z,15.87
2019-05-20T01:27:08.560Z,17.40
2019-05-20T01:29:36.175Z,16.90
2019-05-20T01:32:04.493Z,15.80
2019-05-20T01:46:04.727Z,15.30
2019-05-20T01:48:32.310Z,15.23
2019-05-20T01:50:59.871Z,16.83
2019-05-20T01:53:27.461Z,13.33
2019-05-20T01:55:54.942Z,12.63
2019-05-20T01:58:22.653Z,16.37
2019-05-20T02:00:51.015Z,13.83
2019-05-20T02:03:30.889Z,13.77
2019-05-20T02:05:46.815Z,14.63
2019-05-20T02:08:14.420Z,12.27
2019-05-20T02:10:41.993Z,11.83
2019-05-20T02:13:09.475Z,13.47
2019-05-20T02:18:31.118Z,15.20
2019-05-20T02:20:59.450Z,14.80
2019-05-20T02:23:27.035Z,16.13
2019-05-20T02:25:54.600Z,15.27
2019-05-20T02:28:22.387Z,16.30
2019-05-20T02:30:50.048Z,15.50
2019-05-20T02:33:18.415Z,13.93
2019-05-20T02:35:46.099Z,14.70
2019-05-20T02:38:14.472Z,13.47
2019-05-20T02:40:42.033Z,14.07
2019-05-20T02:43:10.283Z,16.60
2019-05-20T02:45:37.873Z,17.03
2019-05-20T02:48:06.153Z,16.30
2019-05-20T02:50:33.850Z,15.97
2019-05-20T02:53:02.229Z,17.33
2019-05-20T02:55:30.585Z,16.93
2019-05-20T02:57:58.111Z,15.70
2019-05-20T03:00:25.667Z,16.50
2019-05-20T03:02:53.199Z,18.77
2019-05-20T03:05:21.563Z,16.30
2019-05-20T03:07:49.232Z,19.70
2019-05-20T03:10:16.806Z,24.23
2019-05-20T03:12:45.205Z,20.03
2019-05-20T03:15:13.498Z,22.00
2019-05-20T03:17:40.989Z,18.77
2019-05-20T03:20:09.379Z,17.80
2019-05-20T03:22:36.999Z,20.17
2019-05-20T03:25:05.334Z,17.83
2019-05-20T03:27:32.956Z,17.13
2019-05-20T03:30:01.296Z,15.53
2019-05-20T03:32:29.087Z,13.63
2019-05-20T03:34:59.756Z,15.50
2019-05-20T03:37:26.048Z,14.73
2019-05-20T03:39:54.425Z,15.87
2019-05-20T03:42:22.802Z,16.33
2019-05-20T03:44:51.258Z,16.13
2019-05-20T03:47:18.849Z,14.03
2019-05-20T03:49:47.104Z,14.77
2019-05-20T03:52:14.712Z,15.90
2019-05-20T03:54:42.192Z,13.70
2019-05-20T03:57:09.771Z,14.73
2019-05-20T03:59:37.291Z,13.93
2019-05-20T04:02:05.742Z,16.03
2019-05-20T04:04:33.434Z,14.83
2019-05-20T04:07:01.020Z,18.03
2019-05-20T04:09:29.488Z,18.00
2019-05-20T04:11:57.046Z,16.73
2019-05-20T04:14:24.611Z,15.67
2019-05-20T04:16:52.140Z,14.97
2019-05-20T04:19:19.661Z,18.20
2019-05-20T04:21:47.312Z,21.20
2019-05-20T04:24:14.805Z,18.03
2019-05-20T04:26:42.330Z,15.07
2019-05-20T04:29:10.618Z,17.70
2019-05-20T04:31:38.497Z,24.70
2019-05-20T04:34:06.048Z,22.47
2019-05-20T04:36:34.358Z,20.53
2019-05-20T04:39:02.697Z,21.70
2019-05-20T04:41:30.273Z,17.80
2019-05-20T04:43:57.761Z,19.57
2019-05-20T04:46:26.124Z,23.80
2019-05-20T04:48:53.908Z,23.57
2019-05-20T04:51:21.609Z,18.53
2019-05-20T04:53:49.222Z,18.83
2019-05-20T04:56:16.799Z,23.17
2019-05-20T04:58:44.356Z,17.30
2019-05-20T05:01:11.920Z,18.40
2019-05-20T05:03:39.586Z,18.87
2019-05-20T05:06:07.351Z,22.43
2019-05-20T05:08:35.095Z,20.23
2019-05-20T05:11:03.621Z,19.00
2019-05-20T05:13:31.180Z,23.57
2019-05-20T05:15:58.938Z,22.00
2019-05-20T05:18:27.186Z,17.03
2019-05-20T05:20:54.792Z,21.87
2019-05-20T05:23:22.353Z,20.20
2019-05-20T05:25:49.858Z,19.20
2019-05-20T05:28:17.343Z,18.70
2019-05-20T05:30:44.823Z,22.43
2019-05-20T05:33:12.323Z,15.10
2019-05-20T05:35:52.235Z,18.00
2019-05-20T05:38:08.750Z,18.27
2019-05-20T05:40:36.047Z,20.10
2019-05-20T05:43:04.576Z,21.17
2019-05-20T05:45:32.111Z,17.93
2019-05-20T05:47:59.741Z,24.08
2019-05-20T05:50:27.234Z,17.30
2019-05-20T05:52:54.739Z,18.53
2019-05-20T05:55:22.323Z,19.13
2019-05-20T05:57:50.251Z,20.87
2019-05-20T06:00:17.748Z,18.53
2019-05-20T06:02:45.783Z,16.87
2019-05-20T06:05:13.328Z,17.77
2019-05-20T06:07:41.701Z,17.27
2019-05-20T06:10:10.062Z,16.80
2019-05-20T06:12:37.571Z,17.83
2019-05-20T06:15:07.089Z,18.13
2019-05-20T06:17:34.703Z,18.90
2019-05-20T06:20:02.428Z,20.10
2019-05-20T06:22:30.033Z,23.03
2019-05-20T06:24:57.537Z,22.10
2019-05-20T06:27:25.169Z,23.57
2019-05-20T06:29:52.941Z,22.67
2019-05-20T06:32:20.530Z,23.90
2019-05-20T06:34:48.780Z,18.37
2019-05-20T06:37:17.862Z,20.15
2019-05-20T06:39:45.542Z,22.27
2019-05-20T06:42:13.035Z,24.17
2019-05-20T06:44:52.181Z,18.20
2019-05-20T06:47:09.149Z,23.97
2019-05-20T06:49:36.652Z,25.00
2019-05-20T06:52:04.918Z,24.13
2019-05-20T06:54:33.395Z,25.23
2019-05-20T06:57:00.958Z,22.17
2019-05-20T06:59:28.506Z,19.40
2019-05-20T07:01:56.183Z,17.67
2019-05-20T07:04:23.689Z,15.87
2019-05-20T07:06:51.439Z,17.90
2019-05-20T07:09:20.129Z,24.63
2019-05-20T07:11:52.798Z,19.23
2019-05-20T07:14:16.063Z,18.10
2019-05-20T07:16:43.615Z,16.83
2019-05-20T07:19:11.110Z,18.17
2019-05-20T07:21:39.402Z,18.13
2019-05-20T07:24:06.922Z,17.63
2019-05-20T07:26:35.211Z,13.67
2019-05-20T07:29:03.697Z,15.63
2019-05-20T07:31:31.280Z,10.97
2019-05-20T07:33:59.646Z,7.47
2019-05-20T07:36:28.015Z,7.20
2019-05-20T07:38:55.522Z,10.13
2019-05-20T07:41:23.011Z,8.97
2019-05-20T07:43:50.603Z,9.13
2019-05-20T07:46:18.201Z,12.07
2019-05-20T07:48:46.565Z,10.53
2019-05-20T07:51:15.964Z,12.47
2019-05-20T07:53:43.568Z,8.40
2019-05-20T07:56:11.808Z,8.80
2019-05-20T07:58:39.388Z,9.90
2019-05-20T08:01:07.714Z,7.53
2019-05-20T08:03:38.395Z,9.07
2019-05-20T08:06:03.699Z,13.10
2019-05-20T08:08:31.192Z,8.17
2019-05-20T08:10:59.440Z,11.37
2019-05-20T08:13:26.950Z,9.30
2019-05-20T08:15:54.450Z,6.20
2019-05-20T08:18:22.045Z,10.50
2019-05-20T08:20:49.545Z,9.17
2019-05-20T08:23:17.466Z,6.53
2019-05-20T08:25:44.980Z,8.93
2019-05-20T08:28:12.467Z,7.30
2019-05-20T08:30:39.955Z,9.93
2019-05-20T08:33:08.499Z,9.57
2019-05-20T08:35:36.716Z,7.30
2019-05-20T08:38:04.306Z,8.37
2019-05-20T08:40:32.667Z,11.27
2019-05-20T08:43:00.143Z,9.60
2019-05-20T08:45:28.084Z,8.17
2019-05-20T08:47:55.602Z,10.50
2019-05-20T08:50:24.434Z,8.97
2019-05-20T08:52:52.028Z,9.93
2019-05-20T08:55:19.543Z,13.70
2019-05-20T08:57:47.060Z,10.50
2019-05-20T09:00:23.450Z,8.80
2019-05-20T09:02:49.336Z,11.50
2019-05-20T09:05:16.915Z,12.73
2019-05-20T09:07:59.827Z,10.73
2019-05-20T09:10:12.149Z,10.23
2019-05-20T09:12:39.665Z,11.33
2019-05-20T09:15:07.147Z,9.07
2019-05-20T09:17:38.645Z,8.67
2019-05-20T09:20:02.242Z,12.77
2019-05-20T09:22:30.042Z,10.67
2019-05-20T09:24:57.496Z,10.93
2019-05-20T09:27:25.034Z,8.93
2019-05-20T09:29:52.511Z,9.50
2019-05-20T09:32:20.005Z,9.20
2019-05-20T09:34:47.714Z,11.07
2019-05-20T09:37:16.071Z,10.80
2019-05-20T09:39:45.177Z,9.27
2019-05-20T09:42:13.555Z,10.50
2019-05-20T09:44:41.109Z,9.87
2019-05-20T09:47:08.618Z,10.30
2019-05-20T09:49:36.294Z,10.57
2019-05-20T09:52:04.839Z,7.50
2019-05-20T09:54:33.093Z,9.17
2019-05-20T09:57:00.678Z,8.77
2019-05-20T09:59:42.053Z,8.37
2019-05-20T10:01:55.817Z,7.97
2019-05-20T10:04:24.221Z,9.80
2019-05-20T10:06:51.874Z,7.33
2019-05-20T10:09:21.084Z,11.87
2019-05-20T10:11:49.559Z,8.60
2019-05-20T10:14:17.831Z,8.37
2019-05-20T10:16:46.107Z,6.70
2019-05-20T10:19:14.363Z,9.33
2019-05-20T10:21:41.949Z,7.77
2019-05-20T10:24:09.521Z,9.00
2019-05-20T10:26:37.928Z,9.13
2019-05-20T10:29:05.605Z,9.60
2019-05-20T10:31:33.198Z,9.93
2019-05-20T10:34:00.795Z,10.70
2019-05-20T10:36:28.460Z,12.33
2019-05-20T10:38:59.100Z,8.97
2019-05-20T10:41:23.592Z,9.75
2019-05-20T10:43:53.629Z,11.83
2019-05-20T10:46:21.938Z,12.83
2019-05-20T10:48:49.423Z,9.87
2019-05-20T10:51:16.921Z,10.50
2019-05-20T10:53:44.815Z,11.33
2019-05-20T10:56:12.640Z,9.70
2019-05-20T10:58:40.057Z,9.00
2019-05-20T11:01:07.730Z,9.60
2019-05-20T11:03:35.258Z,9.57
2019-05-20T11:06:03.783Z,12.63
2019-05-20T11:08:31.314Z,10.87
2019-05-20T11:10:59.705Z,9.63
2019-05-20T11:13:28.047Z,12.57
2019-05-20T11:15:55.532Z,15.43
2019-05-20T11:18:23.197Z,9.07
2019-05-20T11:20:50.728Z,10.67
2019-05-20T11:23:18.343Z,10.30
2019-05-20T11:25:46.594Z,9.73
2019-05-20T11:28:14.941Z,8.43
2019-05-20T11:30:42.645Z,8.27
2019-05-20T11:33:11.029Z,10.17
2019-05-20T11:35:40.156Z,8.83
2019-05-20T11:38:08.442Z,14.20
2019-05-20T11:40:37.198Z,11.53
2019-05-20T11:43:04.698Z,10.30
2019-05-20T11:45:33.878Z,10.77
2019-05-20T11:48:01.358Z,10.70
2019-05-20T11:50:29.829Z,11.80
2019-05-20T11:52:58.134Z,13.40
2019-05-20T11:55:25.746Z,9.60
2019-05-20T11:57:53.348Z,11.87
2019-05-20T12:00:21.753Z,13.23
2019-05-20T12:02:49.236Z,11.23
2019-05-20T12:05:16.735Z,12.33
2019-05-20T12:07:44.218Z,9.67
2019-05-20T12:10:12.588Z,11.13
2019-05-20T12:12:40.069Z,12.80
2019-05-20T12:15:08.693Z,12.97
2019-05-20T12:17:36.936Z,9.27
2019-05-20T12:20:07.278Z,9.07
2019-05-20T12:22:33.760Z,9.77
2019-05-20T12:25:01.243Z,14.00
2019-05-20T12:27:28.804Z,9.03
2019-05-20T12:29:56.381Z,10.67
2019-05-20T12:32:24.628Z,12.30
2019-05-20T12:34:52.231Z,14.30
2019-05-20T12:37:19.739Z,11.53
2019-05-20T12:39:47.258Z,11.37
2019-05-20T12:42:15.547Z,12.40
2019-05-20T12:44:43.088Z,10.90
2019-05-20T12:47:10.672Z,10.87
2019-05-20T12:49:39.252Z,12.13
2019-05-20T12:52:07.594Z,12.10
2019-05-20T12:54:35.274Z,10.53
2019-05-20T12:57:04.340Z,12.57
2019-05-20T12:59:31.854Z,12.07
2019-05-20T13:01:59.524Z,10.93
2019-05-20T13:04:27.809Z,11.17
2019-05-20T13:06:56.912Z,15.10
2019-05-20T13:09:25.299Z,11.93
2019-05-20T13:11:53.573Z,12.37
2019-05-20T13:14:21.053Z,11.33
2019-05-20T13:16:48.590Z,14.27
2019-05-20T13:19:16.084Z,12.20
2019-05-20T13:21:43.716Z,13.00
2019-05-20T13:24:11.384Z,12.70
2019-05-20T13:26:38.961Z,13.23
2019-05-20T13:29:07.253Z,18.90
2019-05-20T13:31:35.571Z,14.93
2019-05-20T13:34:04.320Z,12.23
2019-05-20T13:36:31.839Z,12.57
2019-05-20T13:38:59.522Z,17.43
2019-05-20T13:41:27.116Z,19.10
2019-05-20T13:43:55.526Z,15.37
2019-05-20T13:46:23.046Z,13.60
2019-05-20T13:48:50.579Z,17.43
2019-05-20T13:51:18.676Z,15.30
2019-05-20T13:53:46.362Z,16.70
2019-05-20T13:56:14.030Z,11.43
2019-05-20T13:58:41.518Z,14.23
2019-05-20T14:01:09.022Z,13.77
2019-05-20T14:03:36.526Z,11.97
2019-05-20T14:06:04.895Z,16.40
2019-05-20T14:08:32.553Z,14.33
2019-05-20T14:11:04.368Z,15.33
2019-05-20T14:13:28.414Z,13.60
2019-05-20T14:15:55.966Z,13.73
2019-05-20T14:18:23.521Z,15.73
2019-05-20T14:20:51.020Z,11.03
2019-05-20T14:23:19.394Z,11.70
2019-05-20T14:25:47.751Z,10.67
2019-05-20T14:28:15.261Z,12.07
2019-05-20T14:30:42.860Z,9.67
2019-05-20T14:33:11.081Z,11.70
2019-05-20T14:35:40.376Z,13.93
2019-05-20T14:38:07.962Z,10.80
2019-05-20T14:40:36.311Z,10.63
2019-05-20T14:43:04.602Z,9.53
2019-05-20T14:45:32.230Z,11.13
2019-05-20T14:47:59.730Z,14.70
2019-05-20T14:50:27.210Z,9.93
2019-05-20T14:52:55.457Z,8.33
2019-05-20T14:55:23.158Z,6.63
2019-05-20T14:57:50.597Z,12.17
2019-05-20T15:00:19.160Z,9.17
2019-05-20T15:02:46.705Z,8.93
2019-05-20T15:05:14.298Z,10.57
2019-05-20T15:07:41.819Z,6.97
2019-05-20T15:10:11.055Z,7.60
2019-05-20T15:12:40.024Z,6.50
2019-05-20T15:15:07.508Z,9.20
2019-05-20T15:17:34.992Z,5.60
2019-05-20T15:20:02.689Z,8.50
2019-05-20T15:22:31.992Z,9.33
2019-05-20T15:25:00.375Z,9.67
2019-05-20T15:27:29.014Z,7.07
2019-05-20T15:29:56.594Z,8.10
2019-05-20T15:32:24.184Z,11.27
2019-05-20T15:34:51.852Z,6.53
2019-05-20T15:37:20.169Z,8.47
2019-05-20T15:39:47.981Z,10.53
2019-05-20T15:42:15.481Z,12.27
2019-05-20T15:44:43.943Z,7.70
2019-05-20T15:47:11.464Z,5.07
2019-05-20T15:49:39.041Z,7.97
2019-05-20T15:52:06.542Z,5.33
2019-05-20T15:54:34.848Z,7.83
2019-05-20T15:57:02.448Z,10.17
2019-05-20T15:59:44.903Z,6.07
2019-05-20T16:01:57.656Z,7.43
2019-05-20T16:04:25.157Z,6.10
2019-05-20T16:06:52.831Z,8.27
2019-05-20T16:09:20.403Z,5.97
2019-05-20T16:11:47.960Z,8.17
2019-05-20T16:14:15.528Z,11.70
2019-05-20T16:16:43.021Z,6.90
2019-05-20T16:19:10.513Z,6.60
2019-05-20T16:21:38.049Z,8.70
2019-05-20T16:24:05.576Z,5.70
2019-05-20T16:26:33.290Z,8.73
2019-05-20T16:29:00.801Z,5.07
2019-05-20T16:31:28.302Z,6.60
2019-05-20T16:33:59.474Z,6.93
2019-05-20T16:36:24.433Z,9.03
2019-05-20T16:38:52.033Z,12.50
2019-05-20T16:41:19.540Z,8.77
2019-05-20T16:43:47.023Z,4.57
2019-05-20T16:46:14.507Z,8.37
2019-05-20T16:48:42.864Z,9.57
2019-05-20T16:51:10.341Z,8.10
2019-05-20T16:53:38.590Z,7.13
2019-05-20T16:56:06.282Z,6.87
2019-05-20T16:58:34.546Z,8.03
2019-05-20T17:01:02.119Z,11.17
2019-05-20T17:03:29.605Z,7.80
2019-05-20T17:05:57.952Z,8.33
2019-05-20T17:08:25.621Z,8.13
2019-05-20T17:10:53.103Z,8.10
2019-05-20T17:13:21.473Z,6.87
2019-05-20T17:15:49.092Z,8.47
2019-05-20T17:18:16.691Z,7.90
2019-05-20T17:20:46.149Z,5.73
2019-05-20T17:23:12.787Z,9.90
2019-05-20T17:25:41.037Z,8.53
2019-05-20T17:28:09.337Z,8.07
2019-05-20T17:30:45.485Z,7.43
2019-05-20T17:33:08.328Z,7.77
2019-05-20T17:35:35.841Z,7.60
2019-05-20T17:38:04.071Z,7.93
2019-05-20T17:40:31.562Z,8.97
2019-05-20T17:42:59.910Z,7.17
2019-05-20T17:45:27.434Z,13.53
2019-05-20T17:47:54.919Z,9.33
2019-05-20T17:50:22.401Z,6.17
2019-05-20T17:52:50.187Z,9.33
2019-05-20T17:55:18.449Z,9.00
2019-05-20T17:57:47.653Z,6.73
2019-05-20T18:00:16.651Z,10.53
2019-05-20T18:02:44.141Z,6.40
2019-05-20T18:05:14.798Z,8.67
2019-05-20T18:07:40.330Z,11.43
2019-05-20T18:10:07.896Z,6.93
2019-05-20T18:12:35.396Z,10.57
2019-05-20T18:15:04.603Z,10.13
2019-05-20T18:17:32.084Z,8.17
2019-05-20T18:20:00.460Z,8.67
2019-05-20T18:22:28.782Z,10.23
2019-05-20T18:24:56.271Z,10.40
2019-05-20T18:27:23.756Z,11.03
2019-05-20T18:29:51.356Z,10.80
2019-05-20T18:32:18.978Z,10.30
2019-05-20T18:34:46.462Z,7.10
2019-05-20T18:37:14.831Z,8.83
2019-05-20T18:39:42.326Z,7.87
2019-05-20T18:42:09.993Z,8.83
2019-05-20T18:44:37.523Z,7.53
2019-05-20T18:47:05.891Z,9.63
2019-05-20T18:49:34.144Z,9.40
2019-05-20T18:52:01.656Z,8.17
2019-05-20T18:54:29.912Z,10.13
2019-05-20T18:56:57.532Z,7.27
2019-05-20T18:59:25.011Z,9.13
2019-05-20T19:02:04.785Z,8.57
2019-05-20T19:04:20.283Z,9.53
2019-05-20T19:06:48.155Z,11.40
2019-05-20T19:09:15.819Z,11.83
2019-05-20T19:11:43.381Z,13.27
2019-05-20T19:14:10.934Z,8.50
2019-05-20T19:16:38.613Z,10.43
2019-05-20T19:19:06.210Z,9.53
2019-05-20T19:21:33.839Z,11.67
2019-05-20T19:24:03.762Z,11.67
2019-05-20T19:26:31.286Z,8.13
2019-05-20T19:28:58.898Z,14.13
2019-05-20T19:31:26.396Z,12.43
2019-05-20T19:33:53.879Z,10.97
2019-05-20T19:36:21.476Z,10.93
2019-05-20T19:38:49.029Z,11.23
2019-05-20T19:41:16.611Z,12.07
2019-05-20T19:43:44.298Z,8.77
2019-05-20T19:46:12.776Z,11.73
2019-05-20T19:48:41.048Z,10.67
2019-05-20T19:51:08.618Z,11.73
2019-05-20T19:53:36.163Z,10.23
2019-05-20T19:56:04.569Z,12.00
2019-05-20T19:58:32.852Z,13.07
2019-05-20T20:01:01.132Z,13.50
2019-05-20T20:03:28.777Z,9.43
2019-05-20T20:05:56.492Z,14.20
2019-05-20T20:08:25.186Z,10.20
2019-05-20T20:10:53.044Z,14.40
2019-05-20T20:13:21.300Z,13.33
2019-05-20T20:15:48.782Z,9.10
2019-05-20T20:18:17.268Z,9.83
2019-05-20T20:20:45.622Z,11.23
2019-05-20T20:23:13.470Z,9.43
2019-05-20T20:25:41.088Z,12.73
2019-05-20T20:28:09.468Z,13.70
2019-05-20T20:30:38.673Z,15.30
2019-05-20T20:33:06.983Z,11.90
2019-05-20T20:35:38.143Z,13.73
2019-05-20T20:38:02.147Z,15.63
2019-05-20T20:40:29.812Z,15.50
2019-05-20T20:42:58.246Z,14.40
2019-05-20T20:45:25.769Z,13.77
2019-05-20T20:47:53.502Z,13.20
2019-05-20T20:50:21.070Z,16.90
2019-05-20T20:52:49.595Z,11.77
2019-05-20T20:55:18.214Z,10.93
2019-05-20T20:57:45.742Z,12.83
2019-05-20T21:00:14.079Z,16.27
2019-05-20T21:02:52.967Z,14.27
2019-05-20T21:05:10.069Z,12.20
2019-05-20T21:07:37.560Z,13.47
2019-05-20T21:10:05.947Z,13.03
2019-05-20T21:12:34.354Z,13.20
2019-05-20T21:15:02.165Z,13.17
2019-05-20T21:17:29.632Z,11.30
2019-05-20T21:19:57.118Z,13.90
2019-05-20T21:22:25.521Z,13.93
2019-05-20T21:24:53.008Z,12.10
2019-05-20T21:27:21.561Z,15.67
2019-05-20T21:29:49.188Z,15.30
2019-05-20T21:32:17.132Z,14.50
2019-05-20T21:34:44.633Z,13.47
2019-05-20T21:37:12.117Z,15.43
2019-05-20T21:39:40.711Z,12.83
2019-05-20T21:42:09.127Z,16.13
2019-05-20T21:44:36.758Z,14.37
2019-05-20T21:47:05.020Z,12.83
2019-05-20T21:49:32.513Z,13.43
2019-05-20T21:52:00.022Z,13.37
2019-05-20T21:54:27.625Z,12.60
2019-05-20T21:56:55.878Z,12.60
2019-05-20T21:59:24.264Z,12.43
2019-05-20T22:01:51.846Z,11.07
2019-05-20T22:04:20.308Z,14.17
2019-05-20T22:06:47.799Z,11.63
2019-05-20T22:09:16.145Z,17.03
2019-05-20T22:11:43.640Z,11.73
2019-05-20T22:14:12.013Z,11.85
2019-05-20T22:16:39.856Z,12.57
2019-05-20T22:19:07.785Z,11.43
2019-05-20T22:21:36.979Z,12.93
2019-05-20T22:24:04.474Z,13.73
2019-05-20T22:26:31.984Z,11.90
2019-05-20T22:29:00.350Z,14.10
2019-05-20T22:31:27.836Z,16.53
2019-05-20T22:33:56.207Z,13.60
2019-05-20T22:36:23.779Z,17.77
2019-05-20T22:38:52.039Z,16.87
2019-05-20T22:41:19.712Z,13.13
2019-05-20T22:43:48.143Z,15.60
2019-05-20T22:46:15.760Z,12.50
2019-05-20T22:48:43.318Z,14.53
2019-05-20T22:51:10.812Z,12.17
2019-05-20T22:53:39.094Z,16.97
2019-05-20T22:56:07.459Z,13.10
2019-05-20T22:58:38.402Z,12.87
2019-05-20T23:01:03.487Z,14.77
2019-05-20T23:03:31.059Z,13.77
2019-05-20T23:05:58.788Z,11.93
2019-05-20T23:08:26.326Z,10.23
2019-05-20T23:10:54.678Z,11.10
2019-05-20T23:13:22.335Z,13.10
2019-05-20T23:15:49.810Z,12.50
2019-05-20T23:18:17.472Z,10.10
2019-05-20T23:20:45.036Z,11.50
2019-05-20T23:23:12.601Z,11.70
2019-05-20T23:25:40.105Z,11.70
2019-05-20T23:28:07.742Z,13.07
2019-05-20T23:30:38.269Z,14.07
2019-05-20T23:33:05.927Z,14.13
2019-05-20T23:35:33.420Z,17.67
2019-05-20T23:38:00.955Z,16.57
2019-05-20T23:40:28.524Z,19.07
2019-05-20T23:42:56.778Z,14.77
2019-05-20T23:45:24.354Z,16.47
2019-05-20T23:47:52.599Z,14.47
2019-05-20T23:50:20.199Z,17.80
2019-05-20T23:52:47.690Z,22.57
2019-05-20T23:55:16.060Z,19.43
2019-05-20T23:57:44.533Z,18.80
